Tallevast, Florida
Current Conditions -  °F | °C
As of 11:53 AM on Thursday 23 Oct 2014 (Local Time) from KSRQ Reporting Station
Clear Clear  
Wind Chill: 79°   Ceiling: Unl
Heat Index: 80°   Visibility: 10mi
Dew Point: 61°   Wind: 13mph
Humidity: 54%   Direction: 50°NE
Pressure: 29.96"   Gusts: NA
Location:  27.4°N, 82.54°W
Report Text: KSRQ 231553Z AUTO 05011KT 10SM CLR 26/16 A2996 RMK AO2 SLP146 T02610161
Loading
Personal Weather Stations






























Interactive Weather Map
Tropical Storm Tracking
New forecast layout! Learn more

10-Day Weather Forecast

Advertisements
Track Severe Weather on mobile